首页
METAR-TAF:

METAR-TAF

机场 :

都柏林机场

都柏林, 爱尔兰

纬度: 53-26N, 经度: 006-15W, 海拔: 68米

当前天气观测

该预报发布于20分钟前的13:30 UTC
风速11节,风向东南,在东转东南之间变化
温度 11°C
湿度 87%
气压 1024 hPa
能见度10公里或以上
散云层高于1000英尺
多云层高于1600英尺

METAR: EIDW 171330Z 14011KT 110V170 9999 SCT010 BKN016 11/09 Q1024 NOSIG

时间: 13:50 (13:50 UTC)

预报

该预报发布于2小时和50分钟前的11:00 UTC
预报有效从17日的 12点(UTC)到 18日的 12点(UTC)
风速10节,风向东转东南
能见度10公里或以上
少量云层高于800英尺
多云层高于1200英尺
短暂存在
从 17日的 12点(UTC)到 17日的 14点(UTC)
散云层高于1200英尺
成为
从 17日的 14点(UTC)到 17日的 17点(UTC)
少量云层高于1500英尺
散云层高于4000英尺

TAF: EIDW 171100Z 1712/1812 12010KT 9999 FEW008 BKN012 TEMPO 1712/1714 SCT012 BECMG 1714/1717 FEW015 SCT040

超过4000个机场的气象观测和天气预报(METAR&TAF报告)。

可查询的气象台以黄色和红色小点在地图上表示。

将鼠标移到小点上方,可查看气象台名称。

然后点击查看天气观测和预报。

如需切换地图:点击带黑十字的绿色按钮放大地图;点击带横线的绿色按钮缩小地图;或者点击绿色箭头查看邻近地区的地图。


METAR-TAF: